WetterOnline ( https://www.wetteronline.de )

Wetter aktuell Wirdum

Aktuelles Wetter: Emden (5m)

6-stündlich | Neueste Meldungen
Ortszeit Temperatur Wetter
Mo, 21.10. 2:00 10.8° C bedeckt
So, 20.10. 20:00 9.9° C bedeckt
So, 20.10. 14:00 12.3° C wolkig
So, 20.10. 8:00 9.6° C bedeckt
So, 20.10. 2:00 10.6° C wolkig
Sa, 19.10. 20:00 11.9° C bedeckt
Sa, 19.10. 14:00 11.2° C Sprühregen
Sa, 19.10. 8:00 10.4° C bedeckt
Ortszeit Temperatur Wetter
Mo, 21.10. 2:30 10.8° C bedeckt
Mo, 21.10. 2:20 10.8° C bedeckt
Mo, 21.10. 2:10 10.7° C bedeckt
Mo, 21.10. 2:00 10.8° C bedeckt
Mo, 21.10. 1:40 10.8° C bedeckt
Mo, 21.10. 1:30 10.6° C bewölkt
Mo, 21.10. 1:00 10.7° C bewölkt
Mo, 21.10. 0:30 10.2° C wolkig
Mo, 21.10. 0:00 10.3° C wolkig
So, 20.10. 23:30 10.4° C bedeckt
Ortszeit Relative Feuchte Sichtweite
Mo, 21.10. 2:00 92% 9 km
So, 20.10. 20:00 99% 3.1 km
So, 20.10. 14:00 90% 14 km
So, 20.10. 8:00 96% 9 km
So, 20.10. 2:00 94% 17 km
Sa, 19.10. 20:00 88% 55 km
Sa, 19.10. 14:00 93% 5.0 km
Sa, 19.10. 8:00 84% 50 km
Ortszeit Relative Feuchte Sichtweite
Mo, 21.10. 2:30 92% 10 km
Mo, 21.10. 2:20 92% -
Mo, 21.10. 2:10 92% -
Mo, 21.10. 2:00 92% 9 km
Mo, 21.10. 1:40 92% -
Mo, 21.10. 1:30 94% 7 km
Mo, 21.10. 1:00 96% 4.7 km
Mo, 21.10. 0:30 99% 3.7 km
Mo, 21.10. 0:00 99% 2.2 km
So, 20.10. 23:30 99% 3.2 km
Ortszeit Niederschlagsmenge Niederschlagsart
Mo, 21.10. 2:00 0.0 l/m2 in 6 Std. -
So, 20.10. 20:00 0.0 l/m2 in 12 Std. -
So, 20.10. 14:00 0.0 l/m2 in 6 Std. -
So, 20.10. 8:00 0.0 l/m2 in 12 Std. -
So, 20.10. 2:00 0.0 l/m2 in 6 Std. -
Sa, 19.10. 20:00 1 l/m2 in 12 Std. Regen
Sa, 19.10. 14:00 0.2 l/m2 in 6 Std. Regen
Sa, 19.10. 8:00 0.1 l/m2 in 12 Std. -
Ortszeit Niederschlagsmenge Niederschlagsart
Mo, 21.10. 2:30 0.0 l/m2 in 1 Std. -
Mo, 21.10. 2:20 keine Meldung -
Mo, 21.10. 2:10 keine Meldung -
Mo, 21.10. 2:00 0.0 l/m2 in 1 Std. -
Mo, 21.10. 1:40 keine Meldung -
Mo, 21.10. 1:30 0.0 l/m2 in 1 Std. -
Mo, 21.10. 1:00 0.0 l/m2 in 1 Std. -
Mo, 21.10. 0:30 0.0 l/m2 in 1 Std. -
Mo, 21.10. 0:00 0.0 l/m2 in 1 Std. -
So, 20.10. 23:30 0.0 l/m2 in 1 Std. -
Ortszeit Stärke Spitze Richtung
km/h Bft. km/h Grad Sektor
Mo, 21.10. 2:00 7 2 14 40° NO
So, 20.10. 20:00 4 1 14 10° N
So, 20.10. 14:00 4 1 18 170° S
So, 20.10. 8:00 6 1 24 160° S
So, 20.10. 2:00 13 3 26 190° S
Sa, 19.10. 20:00 9 2 31 190° S
Sa, 19.10. 14:00 13 3 37 200° S
Sa, 19.10. 8:00 18 3 40 180° S
Ortszeit Stärke Spitze Richtung
km/h Bft. km/h Grad Sektor
Mo, 21.10. 2:30 7 2 14 40° NO
Mo, 21.10. 2:20 7 2 - 40° NO
Mo, 21.10. 2:10 9 2 - 60° NO
Mo, 21.10. 2:00 7 2 14 40° NO
Mo, 21.10. 1:40 11 2 - 40° NO
Mo, 21.10. 1:30 9 2 13 40° NO
Mo, 21.10. 1:00 7 2 13 40° NO
Mo, 21.10. 0:30 7 2 11 10° N
Mo, 21.10. 0:00 7 2 11 20° N
So, 20.10. 23:30 7 2 11 30° NO
Ortszeit Untergrenze Bedeckung Gattung
total tief tief mittel hoch
Mo, 21.10. 2:00 1500 m 8/8 8/8 - - -
So, 20.10. 20:00 3300 m 8/8 8/8 - - -
So, 20.10. 14:00 210 m 8/8 1/8 - - -
So, 20.10. 8:00 4500 m 8/8 8/8 - - -
So, 20.10. 2:00 2100 m 8/8 2/8 - - -
Sa, 19.10. 20:00 5400 m 8/8 8/8 - - -
Sa, 19.10. 14:00 270 m 8/8 8/8 - - -
Sa, 19.10. 8:00 3000 m 8/8 8/8 - - -
Ortszeit Bedeckungsgrad in Achtel und Wolkenuntergrenze
Mo, 21.10. 2:30 8(1500m) 8(2700m)
Mo, 21.10. 2:20 8(1500m) 8(2700m)
Mo, 21.10. 2:10 7(1500m) 8(2700m)
Mo, 21.10. 2:00 5(1500m) 8(2700m) 8(2700m)
Mo, 21.10. 1:40 3(1500m) 3(2100m) 8(2700m)
Mo, 21.10. 1:30 7(1500m) 8(3000m) 8(4800m)
Mo, 21.10. 1:00 4(1800m) 8(3000m) 8(5100m)
Mo, 21.10. 0:30 1(1800m) 6(3000m) 8(4800m)
Mo, 21.10. 0:00 3(2100m) 7(5400m) 8(6900m)
So, 20.10. 23:30 8(2700m) 8(2700m)
Ortszeit Luftdruck NN (hPa) Tendenz (hPa in 3 Std.)
Mo, 21.10. 2:00 1013 + 0,2
So, 20.10. 20:00 1012 + 1,3
So, 20.10. 14:00 1010 + 0,9
So, 20.10. 8:00 1008 + 1,4
So, 20.10. 2:00 1006 + 0,9
Sa, 19.10. 20:00 1004 + 1,2
Sa, 19.10. 14:00 1003 - 0,2
Sa, 19.10. 8:00 1003 - 0,6
Ortszeit Luftdruck NN (hPa) Tendenz (hPa in 3 Std.)
Mo, 21.10. 2:30 1013 + 0,3
Mo, 21.10. 2:20 1013 keine Meldung
Mo, 21.10. 2:10 1013 keine Meldung
Mo, 21.10. 2:00 1013 + 0,2
Mo, 21.10. 1:40 1013 keine Meldung
Mo, 21.10. 1:30 1013 + 0,5
Mo, 21.10. 1:00 1013 + 0,7
Mo, 21.10. 0:30 1013 + 0,9
Mo, 21.10. 0:00 1013 + 1,2
So, 20.10. 23:30 1013 + 1,0
Ortszeit Schneehöhe (cm)
Mo, 21.10. 2:00 0
So, 20.10. 20:00 0
So, 20.10. 14:00 0
So, 20.10. 8:00 0
So, 20.10. 2:00 0
Sa, 19.10. 20:00 0
Sa, 19.10. 14:00 0
Sa, 19.10. 8:00 0
Ortszeit Schneehöhe (cm)
Mo, 21.10. 2:30 0
Mo, 21.10. 2:20 0
Mo, 21.10. 2:10 0
Mo, 21.10. 2:00 0
Mo, 21.10. 1:40 0
Mo, 21.10. 1:30 0
Mo, 21.10. 1:00 0
Mo, 21.10. 0:30 0
Mo, 21.10. 0:00 0
So, 20.10. 23:30 0
Link zu dieser Seite / Seite empfehlen

Das Wetter in ...